Time;durP1;ratioP1;P1;durP2;ratioP2;P2;SDS_P1;SDS_P2;PMS_P1;PMS_P2;Temp;Humidity;BMP_temperature;BMP_pressure;BME280_temperature;BME280_humidity;BME280_pressure;Samples;Min_cycle;Max_cycle;Signal;HPM_P1;HPM_P2
2023/10/11 00:00:48;;;;;;;41.90;19.57;;;16.90;99.90;;;;;;5076915;28;20048;-68
2023/10/11 00:03:17;;;;;;;41.37;19.47;;;16.80;99.90;;;;;;5074935;28;20507;-68
2023/10/11 00:05:45;;;;;;;41.77;20.23;;;16.80;99.90;;;;;;5075909;28;20049;-69
2023/10/11 00:08:16;;;;;;;49.60;20.90;;;16.80;99.90;;;;;;5074829;28;20424;-68
2023/10/11 00:10:47;;;;;;;47.47;21.20;;;16.80;99.90;;;;;;5075285;28;20088;-69
2023/10/11 00:13:17;;;;;;;42.87;19.30;;;16.80;99.90;;;;;;5074922;28;20056;-68
2023/10/11 00:15:50;;;;;;;43.87;19.37;;;16.80;99.90;;;;;;5076064;28;20127;-68
2023/10/11 00:18:24;;;;;;;44.43;18.57;;;16.80;99.90;;;;;;5075744;28;20480;-68
2023/10/11 00:20:51;;;;;;;46.67;20.50;;;16.80;99.90;;;;;;5075591;28;20098;-69
2023/10/11 00:23:22;;;;;;;39.30;19.20;;;16.80;99.90;;;;;;5076228;28;20391;-68
2023/10/11 00:25:50;;;;;;;45.17;19.40;;;16.80;99.90;;;;;;5075609;28;20501;-68
2023/10/11 00:28:17;;;;;;;46.97;19.40;;;16.80;99.90;;;;;;5075662;28;20051;-68
2023/10/11 00:30:46;;;;;;;40.70;18.37;;;16.80;99.90;;;;;;5075509;28;20060;-70
2023/10/11 00:33:13;;;;;;;41.80;19.47;;;16.80;99.90;;;;;;5075477;28;20040;-68
2023/10/11 00:35:47;;;;;;;44.77;19.50;;;16.80;99.90;;;;;;5076476;28;20083;-68
2023/10/11 00:38:18;;;;;;;39.92;18.65;;;16.80;99.90;;;;;;5075649;28;20045;-68
2023/10/11 00:41:06;;;;;;;37.90;19.67;;;16.80;99.90;;;;;;5075863;28;20088;-69
2023/10/11 00:43:37;;;;;;;43.33;19.57;;;16.80;99.90;;;;;;5075309;28;20052;-68
2023/10/11 00:46:08;;;;;;;45.47;19.00;;;16.80;99.90;;;;;;5075214;28;20094;-68
2023/10/11 00:48:35;;;;;;;42.50;19.23;;;16.80;99.90;;;;;;5076040;28;20044;-68
2023/10/11 00:51:01;;;;;;;35.40;19.20;;;16.80;99.90;;;;;;5074779;28;20504;-68
2023/10/11 00:53:34;;;;;;;49.47;19.07;;;16.80;99.90;;;;;;5075020;28;20047;-68
2023/10/11 00:56:06;;;;;;;40.40;19.43;;;16.80;99.90;;;;;;5075036;28;20040;-68
2023/10/11 00:58:33;;;;;;;46.60;18.97;;;16.70;99.90;;;;;;5075000;28;20405;-68
2023/10/11 01:01:03;;;;;;;34.83;18.03;;;16.70;99.90;;;;;;5075174;28;20052;-68
2023/10/11 01:03:33;;;;;;;46.53;18.63;;;16.70;99.90;;;;;;5074888;28;20055;-68
2023/10/11 01:06:00;;;;;;;42.97;19.03;;;16.80;99.90;;;;;;5075413;28;20056;-68
2023/10/11 01:08:30;;;;;;;45.80;18.23;;;16.70;99.90;;;;;;5075108;28;20055;-68
2023/10/11 01:10:56;;;;;;;38.10;18.30;;;16.80;99.90;;;;;;5074773;28;20436;-68
2023/10/11 01:13:22;;;;;;;41.27;18.07;;;16.70;99.90;;;;;;5074978;28;20089;-68
2023/10/11 01:15:50;;;;;;;45.43;19.20;;;16.70;99.90;;;;;;5074678;28;20086;-68
2023/10/11 01:18:16;;;;;;;48.37;18.20;;;16.70;99.90;;;;;;5074624;28;20522;-68
2023/10/11 01:20:42;;;;;;;43.67;18.93;;;16.70;99.90;;;;;;5074626;28;20091;-68
2023/10/11 01:23:08;;;;;;;46.33;20.87;;;16.70;99.90;;;;;;5074573;28;20047;-68
2023/10/11 01:25:33;;;;;;;41.00;18.73;;;16.70;99.90;;;;;;5074451;28;20036;-68
2023/10/11 01:28:00;;;;;;;40.63;17.33;;;16.70;99.90;;;;;;5074892;28;20419;-69
2023/10/11 01:30:27;;;;;;;36.47;17.30;;;16.60;99.90;;;;;;5073900;28;20068;-68
2023/10/11 01:32:55;;;;;;;38.80;16.77;;;16.60;99.90;;;;;;5074525;28;20048;-68
2023/10/11 01:35:21;;;;;;;40.50;16.43;;;16.60;99.90;;;;;;5074258;28;20123;-68
2023/10/11 01:37:48;;;;;;;43.33;17.47;;;16.60;99.90;;;;;;5073728;28;20076;-68
2023/10/11 01:40:26;;;;;;;43.33;17.60;;;16.60;99.90;;;;;;5074700;28;20052;-68
2023/10/11 01:42:53;;;;;;;39.47;16.73;;;16.60;99.90;;;;;;5074151;28;20134;-69
2023/10/11 01:45:20;;;;;;;46.67;18.10;;;16.60;99.90;;;;;;5074813;28;20080;-68
2023/10/11 01:47:50;;;;;;;37.57;16.80;;;16.60;99.90;;;;;;5074830;28;20059;-68
2023/10/11 01:50:17;;;;;;;39.03;17.47;;;16.60;99.90;;;;;;5074105;28;20048;-69
2023/10/11 01:52:47;;;;;;;40.77;16.83;;;16.60;99.90;;;;;;5073946;28;20087;-69
2023/10/11 01:55:14;;;;;;;41.13;17.30;;;16.60;99.90;;;;;;5072920;28;20053;-69
2023/10/11 01:57:45;;;;;;;36.17;15.60;;;16.60;99.90;;;;;;5073863;28;20044;-66
2023/10/11 02:00:15;;;;;;;40.77;17.03;;;16.60;99.90;;;;;;5073423;28;20059;-66
2023/10/11 02:02:47;;;;;;;40.00;17.27;;;16.60;99.90;;;;;;5072659;28;20052;-66
2023/10/11 02:05:14;;;;;;;40.37;16.27;;;16.60;99.90;;;;;;5074264;28;20385;-66
2023/10/11 02:07:40;;;;;;;39.50;16.70;;;16.60;99.90;;;;;;5073481;28;20575;-66
2023/10/11 02:10:13;;;;;;;41.27;16.43;;;16.60;99.90;;;;;;5056301;28;20135;-69
2023/10/11 02:12:46;;;;;;;39.50;16.80;;;16.50;99.90;;;;;;5073737;28;20202;-69
2023/10/11 02:18:10;;;;;;;41.90;17.07;;;16.60;99.90;;;;;;5064850;28;20056;-69
2023/10/11 02:20:44;;;;;;;35.20;15.50;;;16.50;99.90;;;;;;5073583;28;20044;-69
2023/10/11 02:23:11;;;;;;;39.80;15.43;;;16.50;99.90;;;;;;5090025;28;20078;-69
2023/10/11 02:25:38;;;;;;;37.73;14.93;;;16.50;99.90;;;;;;5073472;28;20127;-69
2023/10/11 02:28:09;;;;;;;36.43;14.63;;;16.50;99.90;;;;;;5073480;28;20485;-69
2023/10/11 02:30:38;;;;;;;38.07;15.73;;;16.50;99.90;;;;;;5073213;28;20056;-68
2023/10/11 02:33:07;;;;;;;38.93;13.90;;;16.50;99.90;;;;;;5074208;28;20041;-69
2023/10/11 02:38:22;;;;;;;38.70;14.73;;;16.40;99.90;;;;;;5073510;28;20072;-69
2023/10/11 02:40:55;;;;;;;30.37;14.70;;;16.40;99.90;;;;;;5074248;28;20056;-69
2023/10/11 02:43:25;;;;;;;34.40;14.93;;;16.50;99.90;;;;;;5073152;28;20505;-66
2023/10/11 02:45:52;;;;;;;38.63;14.90;;;16.50;99.90;;;;;;5073874;28;20045;-66
2023/10/11 02:48:19;;;;;;;37.53;15.57;;;16.50;99.90;;;;;;5073016;28;20567;-66
2023/10/11 02:50:49;;;;;;;33.60;15.23;;;16.50;99.90;;;;;;5073319;28;20052;-66
2023/10/11 02:53:21;;;;;;;32.53;13.90;;;16.40;99.90;;;;;;5074079;28;20052;-66
2023/10/11 02:56:03;;;;;;;31.57;14.87;;;16.40;99.90;;;;;;5073014;28;20473;-66
2023/10/11 02:58:31;;;;;;;36.57;15.97;;;16.40;99.90;;;;;;5073563;28;20040;-68
2023/10/11 03:01:10;;;;;;;38.50;15.53;;;16.40;99.90;;;;;;5072843;28;20617;-68
2023/10/11 03:03:38;;;;;;;38.30;14.70;;;16.50;99.90;;;;;;5073262;28;20538;-68
2023/10/11 03:06:07;;;;;;;34.33;14.00;;;16.50;99.90;;;;;;5072981;28;20044;-68
2023/10/11 03:08:33;;;;;;;39.77;15.00;;;16.50;99.90;;;;;;5073018;28;20044;-68
2023/10/11 03:11:04;;;;;;;39.07;14.97;;;16.50;99.90;;;;;;5073284;28;20063;-68
2023/10/11 03:13:32;;;;;;;41.97;14.63;;;16.50;99.90;;;;;;5073143;28;20469;-68
2023/10/11 03:15:59;;;;;;;42.23;14.90;;;16.50;99.90;;;;;;5073070;28;20080;-68
2023/10/11 03:18:32;;;;;;;36.13;14.07;;;16.50;99.90;;;;;;5073092;28;20099;-68
2023/10/11 03:21:08;;;;;;;36.53;13.70;;;16.50;99.90;;;;;;5073543;28;20094;-68
2023/10/11 03:23:44;;;;;;;42.27;15.90;;;16.50;99.90;;;;;;5076094;28;20428;-68
2023/10/11 03:26:33;;;;;;;33.67;14.60;;;16.50;99.90;;;;;;5076602;28;20047;-68
2023/10/11 03:29:03;;;;;;;31.77;12.87;;;16.50;99.90;;;;;;5077233;28;20052;-68
2023/10/11 03:31:41;;;;;;;39.43;15.60;;;16.50;99.90;;;;;;5076605;28;20048;-68
2023/10/11 03:34:10;;;;;;;29.43;13.03;;;16.50;99.90;;;;;;5076919;28;20045;-69
2023/10/11 03:36:49;;;;;;;32.60;13.23;;;16.50;99.90;;;;;;5075873;28;20056;-68
2023/10/11 03:44:40;;;;;;;33.57;12.83;;;16.50;99.90;;;;;;5076671;28;20040;-68
2023/10/11 03:47:09;;;;;;;35.50;13.10;;;16.40;99.90;;;;;;5076441;28;20114;-69
2023/10/11 03:52:25;;;;;;;32.87;12.60;;;16.40;99.90;;;;;;5076312;28;20049;-69
2023/10/11 03:55:05;;;;;;;32.83;13.60;;;16.40;99.90;;;;;;5076196;28;20102;-68
2023/10/11 03:57:40;;;;;;;28.67;12.77;;;16.40;99.90;;;;;;5075152;28;20051;-68
2023/10/11 04:02:56;;;;;;;32.50;11.93;;;16.50;99.90;;;;;;5076995;28;20059;-68
2023/10/11 04:05:22;;;;;;;37.63;12.63;;;16.50;99.90;;;;;;5076028;28;20040;-68
2023/10/11 04:07:48;;;;;;;33.87;11.17;;;16.40;99.90;;;;;;5076594;28;20476;-68
2023/10/11 04:10:20;;;;;;;33.57;11.83;;;16.50;99.90;;;;;;5075941;28;20083;-68
2023/10/11 04:12:47;;;;;;;38.23;12.33;;;16.50;99.90;;;;;;5075596;28;20052;-68
2023/10/11 04:15:24;;;;;;;33.33;11.70;;;16.50;99.90;;;;;;5075851;28;20048;-68
2023/10/11 04:17:50;;;;;;;24.33;10.63;;;16.50;99.90;;;;;;5075886;28;20044;-68
2023/10/11 04:20:29;;;;;;;34.13;12.30;;;16.50;99.90;;;;;;5075777;28;20128;-68
2023/10/11 04:23:09;;;;;;;36.00;13.13;;;16.50;99.90;;;;;;5076009;28;20477;-68
2023/10/11 04:25:38;;;;;;;31.43;12.60;;;16.40;99.90;;;;;;5075480;28;20172;-68
2023/10/11 04:28:06;;;;;;;33.33;13.30;;;16.50;99.90;;;;;;5074405;28;20136;-68
2023/10/11 04:30:44;;;;;;;31.93;12.00;;;16.50;99.90;;;;;;5073976;28;20558;-68
2023/10/11 04:33:20;;;;;;;27.37;11.10;;;16.40;99.90;;;;;;5075351;28;20504;-68
2023/10/11 04:35:55;;;;;;;27.00;10.37;;;16.40;99.90;;;;;;5076077;28;20127;-68
2023/10/11 04:38:22;;;;;;;32.80;12.83;;;16.40;99.90;;;;;;5075455;28;20048;-68
2023/10/11 04:40:54;;;;;;;31.90;12.87;;;16.40;99.90;;;;;;5074232;28;20044;-68
2023/10/11 04:43:29;;;;;;;31.87;11.33;;;16.40;99.90;;;;;;5075322;28;20143;-68
2023/10/11 04:45:59;;;;;;;27.83;11.67;;;16.40;99.90;;;;;;5075249;28;20047;-68
2023/10/11 04:48:30;;;;;;;33.73;11.40;;;16.40;99.90;;;;;;5075268;28;20044;-68
2023/10/11 04:51:13;;;;;;;28.13;12.03;;;16.40;99.90;;;;;;5075551;28;20044;-68
2023/10/11 04:53:58;;;;;;;29.67;12.00;;;16.40;99.90;;;;;;5075461;28;20045;-68
2023/10/11 05:02:07;;;;;;;26.97;11.50;;;16.50;99.90;;;;;;5075805;28;20087;-68
2023/10/11 05:04:33;;;;;;;30.83;11.17;;;16.50;99.90;;;;;;5074909;28;20044;-68
2023/10/11 05:07:07;;;;;;;30.50;13.27;;;16.50;99.90;;;;;;5074895;28;20048;-68
2023/10/11 05:09:41;;;;;;;33.83;12.40;;;16.50;99.90;;;;;;5073702;28;20045;-68
2023/10/11 05:12:19;;;;;;;31.60;12.40;;;16.50;99.90;;;;;;5074829;28;20464;-68
2023/10/11 05:19:55;;;;;;;32.17;12.50;;;16.40;99.90;;;;;;5075140;28;20476;-68
2023/10/11 05:32:32;;;;;;;34.33;13.37;;;16.40;99.90;;;;;;5073714;28;20473;-68
2023/10/11 05:51:33;;;;;;;31.55;12.82;;;16.40;99.90;;;;;;5074091;28;20048;-68
2023/10/11 05:54:03;;;;;;;28.90;12.00;;;16.30;99.90;;;;;;5074546;28;20048;-68
2023/10/11 05:56:33;;;;;;;32.93;13.63;;;16.30;99.90;;;;;;5073985;28;20088;-67
2023/10/11 05:59:03;;;;;;;38.77;14.67;;;16.40;99.90;;;;;;5074458;28;20052;-67
2023/10/11 06:01:30;;;;;;;33.00;12.57;;;16.40;99.90;;;;;;5072719;28;20509;-68
2023/10/11 06:03:57;;;;;;;32.17;13.27;;;16.40;99.90;;;;;;5073804;28;20084;-68
2023/10/11 06:06:24;;;;;;;30.17;12.43;;;16.50;99.90;;;;;;5071645;28;20048;-69
2023/10/11 06:08:59;;;;;;;29.47;11.87;;;16.50;99.90;;;;;;5072803;28;20048;-69
2023/10/11 06:11:33;;;;;;;33.93;11.67;;;16.50;99.90;;;;;;5056112;28;20087;-69
2023/10/11 06:14:05;;;;;;;30.67;12.93;;;16.50;99.90;;;;;;5073779;28;20123;-69
2023/10/11 06:16:43;;;;;;;32.63;12.70;;;16.60;99.90;;;;;;5072470;28;20048;-68
2023/10/11 06:19:17;;;;;;;32.13;12.80;;;16.60;99.90;;;;;;5073378;28;20389;-68
2023/10/11 06:24:48;;;;;;;24.50;11.27;;;16.60;99.90;;;;;;5039241;28;20055;-69
2023/10/11 06:29:46;;;;;;;36.40;12.23;;;16.70;99.90;;;;;;5073623;28;20139;-69
2023/10/11 06:32:18;;;;;;;27.90;12.10;;;16.70;99.90;;;;;;5073268;28;20471;-68
2023/10/11 06:34:45;;;;;;;36.07;13.63;;;16.70;99.90;;;;;;5073843;28;20087;-68
2023/10/11 06:37:14;;;;;;;30.87;11.83;;;16.70;99.90;;;;;;5074252;28;20080;-68
2023/10/11 06:42:18;;;;;;;36.50;12.77;;;16.80;99.90;;;;;;5073405;28;20147;-69
2023/10/11 06:44:48;;;;;;;30.30;13.53;;;16.70;99.90;;;;;;5073409;28;20036;-69
2023/10/11 06:47:14;;;;;;;28.37;12.07;;;16.70;99.90;;;;;;5073343;28;20123;-68
2023/10/11 06:49:53;;;;;;;31.43;12.67;;;16.80;99.90;;;;;;5074079;28;20040;-69
2023/10/11 06:52:25;;;;;;;32.57;13.40;;;16.80;99.90;;;;;;5073889;28;20101;-68
2023/10/11 06:55:13;;;;;;;24.77;12.17;;;16.80;99.90;;;;;;5073932;28;20045;-68
2023/10/11 06:57:50;;;;;;;35.63;12.93;;;16.80;99.90;;;;;;5075566;28;20099;-68
2023/10/11 07:00:21;;;;;;;26.67;11.57;;;16.90;99.90;;;;;;5078220;28;20048;-68
2023/10/11 07:03:06;;;;;;;28.07;12.33;;;16.90;99.90;;;;;;5077314;28;20045;-68
2023/10/11 07:05:40;;;;;;;32.23;12.97;;;16.90;99.90;;;;;;5077484;28;20067;-69
2023/10/11 07:08:08;;;;;;;32.75;12.23;;;16.90;99.90;;;;;;5077338;28;20091;-69
2023/10/11 07:10:35;;;;;;;25.53;12.17;;;16.90;99.90;;;;;;5075939;28;20103;-69
2023/10/11 07:13:12;;;;;;;31.63;12.97;;;17.00;99.90;;;;;;5077609;28;20087;-68
2023/10/11 07:15:40;;;;;;;28.07;12.70;;;17.00;99.90;;;;;;5077887;28;20049;-69
2023/10/11 07:18:39;;;;;;;29.07;12.47;;;17.00;99.90;;;;;;5076956;28;20047;-69
2023/10/11 07:21:09;;;;;;;29.63;13.23;;;17.00;99.90;;;;;;5076386;28;20049;-68
2023/10/11 07:29:01;;;;;;;30.97;12.33;;;17.00;99.90;;;;;;5076983;28;20052;-72
2023/10/11 07:31:38;;;;;;;29.00;12.00;;;17.10;99.90;;;;;;5077486;28;20056;-67
2023/10/11 07:34:10;;;;;;;26.63;11.50;;;17.10;99.90;;;;;;5075496;28;20076;-67
2023/10/11 07:36:38;;;;;;;27.17;11.97;;;17.10;99.90;;;;;;5076717;28;20107;-67
2023/10/11 07:39:14;;;;;;;24.37;12.63;;;17.10;99.90;;;;;;5075430;28;20040;-67
2023/10/11 07:41:42;;;;;;;25.57;12.23;;;17.10;99.90;;;;;;5076627;28;20053;-67
2023/10/11 07:44:09;;;;;;;28.50;12.20;;;17.20;99.90;;;;;;5076463;28;20540;-67
2023/10/11 07:46:37;;;;;;;34.37;13.00;;;17.20;99.90;;;;;;5077067;28;20119;-68
2023/10/11 07:49:07;;;;;;;31.33;12.40;;;17.20;99.90;;;;;;5076469;28;20047;-67
2023/10/11 07:51:39;;;;;;;27.53;12.30;;;17.20;99.90;;;;;;5076420;28;20132;-67
2023/10/11 07:54:24;;;;;;;29.87;12.20;;;17.20;99.90;;;;;;5059068;28;20055;-67
2023/10/11 07:56:57;;;;;;;30.77;12.90;;;17.30;99.90;;;;;;5076409;28;20044;-67
2023/10/11 07:59:30;;;;;;;30.60;12.67;;;17.30;99.90;;;;;;5076403;28;20055;-67
2023/10/11 08:01:58;;;;;;;28.47;12.97;;;17.30;99.90;;;;;;5075627;28;20057;-67
2023/10/11 08:04:28;;;;;;;30.77;11.80;;;17.30;99.90;;;;;;5076667;28;20053;-67
2023/10/11 08:07:03;;;;;;;27.83;12.20;;;17.40;99.90;;;;;;5075124;28;20052;-67
2023/10/11 08:09:52;;;;;;;23.25;11.35;;;17.40;99.90;;;;;;5075513;28;20044;-67
2023/10/11 08:12:21;;;;;;;24.93;11.67;;;17.40;99.90;;;;;;5075646;28;20052;-67
2023/10/11 08:14:48;;;;;;;25.07;11.33;;;17.40;99.90;;;;;;5075991;28;20052;-67
2023/10/11 08:17:19;;;;;;;29.57;11.70;;;17.40;99.90;;;;;;5076485;28;20055;-67
2023/10/11 08:19:47;;;;;;;30.23;11.97;;;17.40;99.90;;;;;;5076481;28;20053;-67
2023/10/11 08:22:17;;;;;;;22.77;12.13;;;17.40;99.90;;;;;;5075847;28;20082;-67
2023/10/11 08:24:50;;;;;;;26.40;12.07;;;17.40;99.90;;;;;;5058330;28;20044;-67
2023/10/11 08:27:27;;;;;;;22.43;11.10;;;17.40;99.90;;;;;;5075271;28;20412;-67
2023/10/11 08:30:09;;;;;;;24.43;10.23;;;17.40;99.90;;;;;;5074486;28;20155;-67
2023/10/11 08:32:43;;;;;;;21.60;10.20;;;17.40;99.90;;;;;;5076542;28;20049;-67
2023/10/11 08:35:17;;;;;;;17.93;8.93;;;17.40;99.90;;;;;;5075725;28;20045;-67
2023/10/11 08:37:52;;;;;;;15.10;8.60;;;17.40;99.90;;;;;;5075599;28;20102;-67
2023/10/11 08:40:23;;;;;;;;;;;17.40;99.90;;;;;;5076120;28;20120;-67
2023/10/11 08:42:50;;;;;;;18.53;9.30;;;17.40;99.90;;;;;;5075576;28;19920;-67
2023/10/11 08:45:24;;;;;;;15.07;8.70;;;17.40;99.90;;;;;;5075991;28;20124;-67
2023/10/11 08:47:52;;;;;;;16.90;9.30;;;17.40;99.90;;;;;;5074914;28;20057;-67
2023/10/11 08:50:18;;;;;;;17.10;7.90;;;17.40;99.90;;;;;;5075712;28;20079;-66
2023/10/11 08:52:44;;;;;;;15.17;7.57;;;17.40;99.90;;;;;;5075307;28;20051;-68
2023/10/11 08:55:15;;;;;;;13.73;7.87;;;17.40;99.90;;;;;;5075695;28;20044;-66
2023/10/11 08:57:47;;;;;;;16.07;8.30;;;17.40;99.90;;;;;;5074186;28;20050;-67
2023/10/11 09:00:29;;;;;;;15.70;8.07;;;17.40;99.90;;;;;;5075959;28;20051;-66
2023/10/11 09:03:17;;;;;;;14.67;7.63;;;17.40;99.90;;;;;;5074932;28;20056;-66
2023/10/11 09:05:43;;;;;;;13.43;8.10;;;17.40;99.90;;;;;;5058301;28;20044;-67
2023/10/11 09:08:27;;;;;;;19.23;8.77;;;17.50;99.90;;;;;;5074887;28;20084;-67
2023/10/11 09:11:06;;;;;;;23.90;10.33;;;17.50;99.90;;;;;;5075941;28;20048;-67
2023/10/11 09:13:36;;;;;;;16.83;8.40;;;17.50;99.90;;;;;;5075176;28;20044;-67
2023/10/11 09:16:08;;;;;;;17.83;8.83;;;17.60;99.90;;;;;;5075063;28;20135;-67
2023/10/11 09:18:37;;;;;;;16.27;8.60;;;17.60;99.90;;;;;;5073795;28;20044;-67
2023/10/11 09:21:17;;;;;;;17.97;8.83;;;17.70;99.90;;;;;;5073680;28;20048;-67
2023/10/11 09:23:47;;;;;;;17.73;9.03;;;17.70;99.90;;;;;;5074970;28;20048;-67
2023/10/11 09:26:35;;;;;;;21.90;8.70;;;17.80;99.90;;;;;;5074465;28;20118;-68
2023/10/11 09:29:03;;;;;;;15.93;7.93;;;17.90;99.90;;;;;;5074872;28;20044;-67
2023/10/11 09:31:32;;;;;;;14.27;8.77;;;18.00;99.90;;;;;;5074802;28;20055;-67
2023/10/11 09:34:07;;;;;;;15.33;7.97;;;18.00;99.90;;;;;;5074731;28;20059;-67
2023/10/11 09:36:33;;;;;;;14.95;8.27;;;18.00;99.90;;;;;;5074479;28;20202;-67
2023/10/11 09:39:02;;;;;;;19.77;8.20;;;18.00;99.90;;;;;;5074028;28;20131;-68
2023/10/11 09:41:38;;;;;;;16.98;8.25;;;18.10;99.90;;;;;;5089333;27;20817;-67
2023/10/11 09:44:06;;;;;;;17.40;8.43;;;18.10;99.90;;;;;;5089033;28;20407;-67
2023/10/11 09:46:34;;;;;;;18.57;7.33;;;18.30;99.90;;;;;;5090556;28;20083;-67
2023/10/11 09:49:04;;;;;;;17.37;6.97;;;18.20;99.90;;;;;;5090248;28;20048;-66
2023/10/11 09:51:32;;;;;;;14.13;7.07;;;18.20;99.90;;;;;;5090679;28;20040;-67
2023/10/11 09:54:07;;;;;;;13.80;7.10;;;18.20;99.90;;;;;;5090144;28;20048;-67
2023/10/11 09:56:45;;;;;;;;;;;18.30;99.90;;;;;;5089957;28;20147;-67
2023/10/11 09:59:36;;;;;;;16.30;6.93;;;18.30;99.90;;;;;;5089928;28;19921;-70
2023/10/11 10:02:14;;;;;;;13.53;6.53;;;18.30;99.90;;;;;;5079836;28;20078;-67
2023/10/11 10:04:49;;;;;;;15.67;5.90;;;18.30;99.90;;;;;;5089148;28;20048;-67
2023/10/11 10:07:21;;;;;;;13.80;6.13;;;18.30;99.90;;;;;;5090394;28;20088;-66
2023/10/11 10:10:02;;;;;;;12.07;5.87;;;18.30;99.90;;;;;;5090201;28;20447;-66
2023/10/11 10:12:56;;;;;;;15.57;5.87;;;18.20;99.90;;;;;;5089118;28;20417;-66
2023/10/11 10:15:23;;;;;;;15.20;5.87;;;18.20;99.90;;;;;;5090269;28;20136;-66
2023/10/11 10:17:56;;;;;;;12.90;5.73;;;18.20;99.90;;;;;;5090006;28;20044;-66
2023/10/11 10:20:34;;;;;;;12.30;5.90;;;18.30;99.90;;;;;;5089827;28;20044;-67
2023/10/11 10:23:15;;;;;;;13.90;5.93;;;18.30;99.90;;;;;;5089740;28;20115;-68
2023/10/11 10:26:13;;;;;;;15.17;6.03;;;18.40;99.90;;;;;;5088845;28;20125;-67
2023/10/11 10:28:39;;;;;;;15.43;6.00;;;18.50;99.90;;;;;;5089699;28;20052;-66
2023/10/11 10:31:20;;;;;;;13.57;5.47;;;18.60;99.90;;;;;;5089401;28;20055;-66
2023/10/11 10:33:51;;;;;;;10.40;5.73;;;18.70;99.90;;;;;;5089813;28;20477;-66
2023/10/11 10:36:20;;;;;;;12.03;5.67;;;18.80;99.90;;;;;;5089381;28;20048;-66
2023/10/11 10:41:40;;;;;;;9.10;4.23;;;19.00;99.90;;;;;;5087957;28;20060;-66
2023/10/11 10:44:13;;;;;;;11.37;5.13;;;19.00;99.90;;;;;;5089195;28;20048;-66
2023/10/11 10:46:49;;;;;;;9.23;4.67;;;19.20;99.90;;;;;;5089520;28;20044;-66
2023/10/11 10:49:19;;;;;;;11.40;4.93;;;19.20;99.90;;;;;;5089025;28;20060;-67
2023/10/11 10:51:48;;;;;;;11.93;4.00;;;19.30;99.90;;;;;;5082414;28;20425;-66
2023/10/11 10:54:17;;;;;;;10.23;4.87;;;19.40;99.90;;;;;;5075421;28;20133;-66
2023/10/11 10:56:47;;;;;;;12.43;4.60;;;19.50;99.90;;;;;;5075609;28;20044;-67
2023/10/11 10:59:14;;;;;;;10.70;4.03;;;19.50;99.90;;;;;;5075409;28;20067;-66
2023/10/11 11:01:44;;;;;;;11.00;4.20;;;19.60;99.90;;;;;;5058151;28;20123;-67
2023/10/11 11:04:14;;;;;;;12.60;4.77;;;19.60;99.90;;;;;;5074322;28;20040;-66
2023/10/11 11:06:46;;;;;;;15.43;4.90;;;19.60;99.90;;;;;;5070594;28;20099;-67
2023/10/11 11:09:19;;;;;;;12.37;4.67;;;19.60;99.90;;;;;;5074848;28;20106;-66
2023/10/11 11:11:46;;;;;;;13.13;5.00;;;19.60;99.90;;;;;;5074934;28;20052;-66
2023/10/11 11:14:13;;;;;;;9.67;3.97;;;19.60;99.90;;;;;;5074930;28;20067;-66
2023/10/11 11:16:41;;;;;;;14.47;4.67;;;19.60;99.90;;;;;;5073389;28;20474;-67
2023/10/11 11:19:18;;;;;;;7.23;3.43;;;19.60;99.90;;;;;;5073857;28;20071;-66
2023/10/11 11:21:47;;;;;;;11.00;4.37;;;19.70;99.90;;;;;;5074814;28;20048;-66
2023/10/11 11:24:34;;;;;;;10.67;3.63;;;19.70;99.90;;;;;;5074448;28;20037;-66
2023/10/11 11:27:06;;;;;;;10.90;4.03;;;19.70;99.90;;;;;;5071426;28;20052;-65
2023/10/11 11:29:32;;;;;;;12.30;4.13;;;19.70;99.90;;;;;;5074801;28;20047;-65
2023/10/11 11:32:14;;;;;;;10.20;4.07;;;19.70;99.90;;;;;;5074724;28;20052;-67
2023/10/11 11:35:04;;;;;;;8.33;3.77;;;19.70;99.90;;;;;;5074381;28;20054;-66
2023/10/11 11:37:33;;;;;;;11.57;4.47;;;19.70;99.90;;;;;;5072467;28;20120;-66
2023/10/11 11:42:47;;;;;;;11.90;4.43;;;19.60;99.90;;;;;;5074249;28;20477;-65
2023/10/11 11:45:26;;;;;;;9.13;4.40;;;19.70;99.90;;;;;;5073670;28;20044;-65
2023/10/11 11:47:58;;;;;;;13.87;3.90;;;19.70;99.90;;;;;;5072575;28;20056;-65
2023/10/11 11:50:34;;;;;;;10.40;4.53;;;19.70;99.90;;;;;;5074216;28;20473;-66
2023/10/11 11:53:01;;;;;;;11.33;4.10;;;19.80;99.90;;;;;;5073002;28;20055;-66
2023/10/11 11:55:27;;;;;;;14.67;4.63;;;19.80;99.90;;;;;;5073818;28;20048;-65
2023/10/11 11:57:56;;;;;;;12.00;4.13;;;19.80;99.90;;;;;;5072230;28;20036;-65
2023/10/11 12:02:58;;;;;;;13.13;4.43;;;19.80;99.90;;;;;;5073242;28;20052;-66
2023/10/11 12:05:26;;;;;;;10.50;4.13;;;19.80;99.90;;;;;;5073172;28;20082;-66
2023/10/11 12:07:57;;;;;;;9.07;3.50;;;19.90;99.90;;;;;;5071826;28;20053;-66
2023/10/11 12:10:24;;;;;;;10.37;3.90;;;19.90;99.90;;;;;;5073875;28;20445;-65
2023/10/11 12:12:54;;;;;;;8.63;3.33;;;20.00;99.90;;;;;;5073841;28;20067;-65
2023/10/11 12:15:20;;;;;;;12.27;3.90;;;20.00;99.90;;;;;;5073099;28;20239;-66
2023/10/11 12:17:47;;;;;;;10.77;3.50;;;20.00;99.90;;;;;;5072128;28;20043;-66
2023/10/11 12:20:15;;;;;;;10.13;3.97;;;20.00;99.90;;;;;;5073457;28;20041;-65
2023/10/11 12:22:44;;;;;;;11.40;3.40;;;19.90;99.90;;;;;;5073830;28;20397;-66
2023/10/11 12:25:10;;;;;;;11.53;3.43;;;19.90;99.90;;;;;;5071104;28;20431;-65
2023/10/11 12:27:42;;;;;;;8.73;3.27;;;19.90;99.90;;;;;;5070808;28;20051;-66
2023/10/11 12:30:10;;;;;;;9.70;3.27;;;19.80;99.90;;;;;;5073421;28;20040;-65
2023/10/11 12:32:38;;;;;;;12.53;3.20;;;19.70;99.90;;;;;;5074021;28;20059;-66
2023/10/11 12:35:08;;;;;;;9.20;3.53;;;19.60;99.90;;;;;;5072534;28;20048;-66
2023/10/11 12:37:34;;;;;;;10.90;3.90;;;19.60;99.90;;;;;;5070148;28;20365;-66
2023/10/11 12:40:01;;;;;;;9.67;3.90;;;19.60;99.90;;;;;;5073306;28;20056;-66
2023/10/11 12:42:26;;;;;;;12.90;5.13;;;19.70;99.90;;;;;;5073320;28;20048;-66
2023/10/11 12:44:53;;;;;;;10.60;3.73;;;19.70;99.90;;;;;;5072878;28;20048;-67
2023/10/11 12:47:19;;;;;;;12.90;4.13;;;19.80;99.90;;;;;;5070063;28;20063;-65
2023/10/11 12:49:48;;;;;;;13.27;4.23;;;19.80;99.90;;;;;;5073556;28;20139;-65
2023/10/11 12:52:18;;;;;;;12.10;3.97;;;19.90;99.90;;;;;;5071717;28;20128;-65
2023/10/11 12:54:43;;;;;;;11.40;4.90;;;19.90;99.90;;;;;;5073123;28;20396;-66
2023/10/11 12:57:09;;;;;;;11.10;4.40;;;19.90;99.90;;;;;;5070312;28;20054;-66
2023/10/11 12:59:35;;;;;;;14.57;4.37;;;19.90;99.90;;;;;;5073219;28;20045;-65
2023/10/11 13:02:04;;;;;;;11.50;4.90;;;19.90;99.90;;;;;;5073031;28;20048;-66
2023/10/11 13:04:37;;;;;;;9.13;3.80;;;19.90;99.90;;;;;;5072982;28;20055;-66
2023/10/11 13:07:10;;;;;;;13.50;4.20;;;19.90;99.90;;;;;;5070458;28;20060;-66
2023/10/11 13:09:36;;;;;;;12.23;4.60;;;19.80;99.90;;;;;;5073381;28;20158;-66
2023/10/11 13:12:03;;;;;;;11.50;4.30;;;19.80;99.90;;;;;;5072930;28;20500;-65
2023/10/11 13:14:29;;;;;;;16.07;4.43;;;19.80;99.90;;;;;;5072449;28;20070;-66
2023/10/11 13:17:00;;;;;;;13.47;5.33;;;19.70;99.90;;;;;;5070433;28;21222;-66
2023/10/11 13:19:27;;;;;;;11.97;4.73;;;19.70;99.90;;;;;;5072451;28;20049;-66
2023/10/11 13:21:56;;;;;;;13.83;4.70;;;19.70;99.90;;;;;;5073040;28;20109;-74
2023/10/11 13:24:24;;;;;;;16.97;5.67;;;19.70;99.90;;;;;;5072682;28;20048;-67
2023/10/11 13:26:54;;;;;;;10.23;4.33;;;19.60;99.90;;;;;;5072959;28;20056;-67
2023/10/11 13:29:21;;;;;;;14.73;4.90;;;19.60;99.90;;;;;;5072595;28;20151;-69
2023/10/11 13:31:48;;;;;;;12.20;3.90;;;19.50;99.90;;;;;;5072417;28;20057;-69
2023/10/11 13:34:14;;;;;;;12.13;4.70;;;19.50;99.90;;;;;;5072323;28;20052;-68
2023/10/11 13:36:43;;;;;;;12.50;4.97;;;19.40;99.90;;;;;;5072390;28;20106;-68
2023/10/11 13:39:25;;;;;;;13.50;4.73;;;19.50;99.90;;;;;;5072446;28;20041;-67
2023/10/11 13:41:55;;;;;;;15.20;4.37;;;19.50;99.90;;;;;;5069901;28;20044;-67
2023/10/11 13:44:22;;;;;;;14.30;4.80;;;19.50;99.90;;;;;;5072314;28;20396;-67
2023/10/11 13:46:53;;;;;;;12.53;4.43;;;19.50;99.90;;;;;;5072430;28;20373;-67
2023/10/11 13:49:26;;;;;;;13.97;4.77;;;19.50;99.90;;;;;;5071854;28;20098;-67
2023/10/11 13:51:59;;;;;;;16.33;5.37;;;19.50;99.90;;;;;;5071673;28;20482;-67
2023/10/11 13:54:36;;;;;;;14.60;4.50;;;19.50;99.90;;;;;;5072800;28;20052;-67
2023/10/11 13:57:07;;;;;;;19.93;5.10;;;19.50;99.90;;;;;;5072924;28;20040;-67
2023/10/11 13:59:37;;;;;;;16.70;5.00;;;19.50;99.90;;;;;;5072776;28;20110;-67
2023/10/11 14:07:33;;;;;;;13.07;4.47;;;19.40;99.90;;;;;;5072736;28;20050;-67
2023/10/11 14:09:59;;;;;;;12.17;4.67;;;19.40;99.90;;;;;;5073076;28;20095;-67
2023/10/11 14:12:29;;;;;;;10.37;3.70;;;19.50;99.90;;;;;;5072550;28;20106;-67
2023/10/11 14:14:57;;;;;;;11.53;4.20;;;19.60;99.90;;;;;;5072780;28;20055;-67